Time;durP1;ratioP1;P1;durP2;ratioP2;P2;SDS_P1;SDS_P2;PMS_P1;PMS_P2;Temp;Humidity;BMP_temperature;BMP_pressure;BME280_temperature;BME280_humidity;BME280_pressure;Samples;Min_cycle;Max_cycle;Signal;HPM_P1;HPM_P2
2023/07/08 00:00:54;;;;;;;0.40;0.40;;;25.60;65.50;;;26.22;48.62;95486.16;5096441;28;20188;-43
2023/07/08 00:03:21;;;;;;;0.60;0.60;;;25.60;65.50;;;26.21;48.49;95487.25;5096166;28;20290;-43
2023/07/08 00:05:53;;;;;;;0.40;0.40;;;25.50;65.50;;;26.18;48.78;95498.53;5096145;28;20210;-43
2023/07/08 00:08:21;;;;;;;0.40;0.40;;;25.50;65.50;;;26.16;48.27;95496.13;5095196;28;20210;-43
2023/07/08 00:10:48;;;;;;;0.50;0.50;;;25.50;65.40;;;26.16;48.26;95500.72;5095066;28;20223;-43
2023/07/08 00:13:15;;;;;;;0.40;0.40;;;25.50;65.50;;;26.13;48.43;95498.56;5096248;28;20213;-43
2023/07/08 00:15:42;;;;;;;0.40;0.40;;;25.50;65.50;;;26.10;48.51;95504.50;5094714;28;20640;-44
2023/07/08 00:18:14;;;;;;;0.60;0.60;;;25.50;65.50;;;26.08;48.41;95512.03;5094918;28;20273;-43
2023/07/08 00:20:44;;;;;;;0.40;0.40;;;25.40;65.50;;;26.05;48.69;95510.69;5096208;28;20243;-43
2023/07/08 00:23:12;;;;;;;0.30;0.30;;;25.40;65.40;;;26.03;48.72;95513.63;5096127;28;20301;-45
2023/07/08 00:25:40;;;;;;;0.40;0.40;;;25.40;65.40;;;26.00;48.83;95506.13;5094694;28;20638;-43
2023/07/08 00:28:14;;;;;;;0.30;0.30;;;25.40;65.40;;;25.99;48.71;95509.09;5095712;28;20620;-45
2023/07/08 00:30:41;;;;;;;0.40;0.40;;;25.30;65.50;;;25.95;48.44;95510.72;5095096;28;20205;-46
2023/07/08 00:33:08;;;;;;;0.30;0.30;;;25.30;65.50;;;25.94;48.54;95515.28;5095610;28;20701;-45
2023/07/08 00:35:46;;;;;;;0.50;0.50;;;25.30;65.60;;;25.90;49.04;95511.53;5095629;28;20203;-46
2023/07/08 00:38:28;;;;;;;0.40;0.40;;;25.30;65.40;;;25.86;48.98;95511.28;5095457;28;20208;-43
2023/07/08 00:41:02;;;;;;;0.50;0.50;;;25.30;65.60;;;25.83;48.73;95509.16;5095749;28;20247;-43
2023/07/08 00:43:46;;;;;;;0.40;0.40;;;25.20;65.60;;;25.81;49.10;95508.63;5095770;28;20566;-45
2023/07/08 00:46:25;;;;;;;0.30;0.30;;;25.20;66.50;;;25.78;48.79;95495.75;5094797;28;20207;-44
2023/07/08 00:49:07;;;;;;;0.40;0.40;;;25.20;65.50;;;25.76;49.26;95505.94;5111297;28;20192;-46
2023/07/08 00:51:40;;;;;;;0.50;0.50;;;25.10;65.60;;;25.75;48.96;95498.16;5095602;28;20201;-45
2023/07/08 00:54:18;;;;;;;0.40;0.40;;;25.10;65.60;;;25.71;49.09;95498.69;5095917;28;20595;-45
2023/07/08 00:57:02;;;;;;;0.40;0.40;;;25.10;65.80;;;25.69;48.95;95500.06;5094562;28;20180;-43
2023/07/08 01:00:00;;;;;;;0.30;0.30;;;25.10;65.80;;;25.66;49.02;95487.97;5095580;28;20246;-42
2023/07/08 01:02:28;;;;;;;0.50;0.50;;;25.00;65.60;;;25.63;49.28;95485.03;5094229;28;20199;-42
2023/07/08 01:05:04;;;;;;;0.40;0.40;;;25.10;65.70;;;25.62;49.08;95492.31;5094330;28;20208;-43
2023/07/08 01:07:33;;;;;;;0.40;0.40;;;25.10;65.70;;;25.63;49.38;95495.78;5094366;28;20173;-43
2023/07/08 01:10:12;;;;;;;0.30;0.30;;;25.00;65.70;;;25.59;49.07;95492.84;5095145;28;20576;-43
2023/07/08 01:12:46;;;;;;;0.40;0.40;;;25.00;65.80;;;25.58;49.32;95488.53;5094141;28;20223;-43
2023/07/08 01:15:14;;;;;;;0.43;0.43;;;25.00;65.80;;;25.57;48.84;95484.25;5077497;28;20200;-43
2023/07/08 01:17:44;;;;;;;0.32;0.32;;;25.00;65.80;;;25.55;49.18;95487.19;5094915;28;20193;-43
2023/07/08 01:20:14;;;;;;;0.40;0.40;;;25.00;65.80;;;25.55;49.25;95484.50;5094370;28;20677;-43
2023/07/08 01:22:43;;;;;;;0.40;0.40;;;25.00;65.80;;;25.55;49.24;95483.72;5096149;28;20575;-43
2023/07/08 01:25:13;;;;;;;0.40;0.40;;;25.00;65.90;;;25.52;48.99;95468.97;5077350;28;20219;-43
2023/07/08 01:27:45;;;;;;;0.40;0.40;;;24.90;65.80;;;25.52;49.63;95471.66;5094149;28;20268;-43
2023/07/08 01:30:15;;;;;;;0.30;0.30;;;24.90;66.80;;;25.52;49.42;95470.81;5081463;28;20293;-43
2023/07/08 01:32:49;;;;;;;0.57;0.57;;;24.90;65.90;;;25.51;49.18;95470.03;5098163;28;20297;-43
2023/07/08 01:35:17;;;;;;;0.57;0.57;;;24.90;65.90;;;25.50;49.37;95467.59;5098244;28;20180;-43
2023/07/08 01:37:59;;;;;;;0.35;0.35;;;24.90;65.90;;;25.47;49.24;95460.09;5099040;28;20227;-46
2023/07/08 01:40:36;;;;;;;0.60;0.60;;;24.90;65.90;;;25.47;49.42;95452.03;5099249;28;20213;-43
2023/07/08 01:43:05;;;;;;;0.30;0.30;;;24.90;66.00;;;25.46;49.36;95453.13;5097971;28;20194;-43
2023/07/08 01:45:40;;;;;;;0.30;0.30;;;24.90;66.00;;;25.44;49.33;95453.41;5098880;28;20274;-43
2023/07/08 01:48:17;;;;;;;0.30;0.30;;;24.90;65.90;;;25.42;49.33;95450.19;5098881;28;20187;-43
2023/07/08 01:50:56;;;;;;;0.50;0.50;;;24.90;66.00;;;25.40;49.21;95449.63;5098104;28;20189;-43
2023/07/08 01:53:38;;;;;;;0.30;0.30;;;24.90;66.10;;;25.37;49.62;95450.16;5098787;28;20178;-43
2023/07/08 01:56:05;;;;;;;0.52;0.52;;;24.80;66.00;;;25.37;49.22;95442.13;5098819;28;20177;-46
2023/07/08 01:58:33;;;;;;;0.40;0.40;;;24.80;65.90;;;25.35;49.21;95434.34;5080721;28;20215;-46
2023/07/08 02:01:01;;;;;;;0.32;0.32;;;24.80;65.90;;;25.35;49.12;95447.75;5114616;28;20734;-43
2023/07/08 02:03:29;;;;;;;0.40;0.40;;;24.80;66.00;;;25.34;49.46;95442.63;5098549;28;20220;-44
2023/07/08 02:05:56;;;;;;;0.40;0.40;;;24.80;66.10;;;25.32;48.99;95432.19;5114708;28;20219;-40
2023/07/08 02:08:24;;;;;;;0.30;0.30;;;24.80;66.00;;;25.31;49.58;95429.78;5098322;28;20237;-42
2023/07/08 02:10:58;;;;;;;0.35;0.35;;;24.80;66.00;;;25.25;49.07;95419.06;5114347;28;20260;-40
2023/07/08 02:13:26;;;;;;;0.30;0.30;;;24.70;66.00;;;25.28;49.76;95423.06;5098606;28;20185;-43
2023/07/08 02:15:53;;;;;;;0.30;0.30;;;24.70;65.90;;;25.27;49.35;95418.78;5097710;28;20233;-47
2023/07/08 02:18:20;;;;;;;0.30;0.30;;;24.70;66.00;;;25.24;49.47;95422.81;5098230;28;20626;-42
2023/07/08 02:20:47;;;;;;;0.40;0.40;;;24.70;65.90;;;25.23;49.50;95420.38;5097215;28;20620;-42
2023/07/08 02:23:15;;;;;;;0.40;0.40;;;24.70;66.00;;;25.21;49.33;95417.19;5098409;28;20222;-47
2023/07/08 02:25:51;;;;;;;0.30;0.30;;;24.60;65.90;;;25.20;49.50;95412.88;5113969;28;20659;-43
2023/07/08 02:28:18;;;;;;;0.40;0.40;;;24.70;66.10;;;25.18;49.31;95410.47;5097925;28;20615;-43
2023/07/08 02:30:46;;;;;;;0.40;0.40;;;24.60;66.00;;;25.16;49.31;95412.63;5097925;28;20689;-43
2023/07/08 02:33:17;;;;;;;0.40;0.40;;;24.60;66.00;;;25.16;49.26;95409.13;5098108;28;20195;-45
2023/07/08 02:35:45;;;;;;;0.40;0.40;;;24.60;66.00;;;25.13;49.27;95415.06;5098504;28;20184;-45
2023/07/08 02:38:13;;;;;;;0.38;0.38;;;24.60;66.00;;;25.12;49.26;95419.63;5097882;28;20216;-46
2023/07/08 02:40:40;;;;;;;0.38;0.38;;;24.60;66.00;;;25.09;49.63;95409.41;5097416;28;20181;-43
2023/07/08 02:43:08;;;;;;;0.40;0.40;;;24.50;66.00;;;25.08;49.49;95411.31;5097847;28;20226;-44
2023/07/08 02:45:36;;;;;;;0.40;0.40;;;24.60;66.00;;;25.02;49.49;95398.16;5097990;28;20212;-45
2023/07/08 02:48:03;;;;;;;0.50;0.50;;;24.50;66.00;;;25.04;49.73;95409.44;5097667;28;20221;-41
2023/07/08 02:50:31;;;;;;;0.35;0.35;;;24.50;66.00;;;25.02;49.55;95412.38;5097620;28;20231;-42
2023/07/08 02:52:59;;;;;;;0.40;0.40;;;24.50;66.10;;;25.00;49.37;95414.53;5097323;28;20221;-42
2023/07/08 02:55:26;;;;;;;0.50;0.50;;;24.50;66.10;;;24.99;49.71;95415.63;5113585;28;20277;-42
2023/07/08 02:57:53;;;;;;;0.40;0.40;;;24.50;66.10;;;24.96;49.48;95418.81;5097315;28;20194;-42
2023/07/08 03:00:20;;;;;;;0.50;0.50;;;24.50;67.00;;;24.94;49.51;95423.69;5097374;28;20220;-42
2023/07/08 03:02:47;;;;;;;0.40;0.40;;;24.50;66.10;;;24.94;49.42;95415.63;5079712;28;20192;-42
2023/07/08 03:05:14;;;;;;;0.30;0.30;;;24.40;66.00;;;24.91;49.70;95411.63;5097315;28;20212;-42
2023/07/08 03:07:42;;;;;;;0.50;0.50;;;24.40;66.10;;;24.89;49.69;95413.75;5113354;27;20203;-42
2023/07/08 03:10:09;;;;;;;0.40;0.40;;;24.40;66.20;;;24.89;49.52;95407.56;5097118;28;20253;-42
2023/07/08 03:12:36;;;;;;;0.40;0.40;;;24.40;66.10;;;24.87;49.79;95407.84;5097104;28;20627;-42
2023/07/08 03:15:05;;;;;;;0.30;0.30;;;24.40;66.20;;;24.86;50.01;95416.97;5097406;28;20200;-42
2023/07/08 03:17:33;;;;;;;0.40;0.40;;;24.40;66.30;;;24.84;49.58;95407.56;5097650;28;20194;-42
2023/07/08 03:20:00;;;;;;;0.30;0.30;;;24.30;66.20;;;24.83;49.85;95412.16;5096907;28;20261;-44
2023/07/08 03:22:27;;;;;;;0.40;0.40;;;24.40;66.30;;;24.82;49.74;95418.59;5096162;28;20257;-42
2023/07/08 03:24:55;;;;;;;0.50;0.50;;;24.30;66.30;;;24.82;49.76;95425.84;5096935;28;20257;-42
2023/07/08 03:27:23;;;;;;;0.30;0.30;;;24.30;66.30;;;24.80;49.88;95425.31;5112812;28;20243;-43
2023/07/08 03:29:51;;;;;;;0.30;0.30;;;24.30;66.30;;;24.78;49.58;95422.91;5112879;28;20242;-42
2023/07/08 03:32:18;;;;;;;0.30;0.30;;;24.30;66.20;;;24.76;49.97;95422.34;5112647;28;20227;-44
2023/07/08 03:34:45;;;;;;;0.40;0.40;;;24.30;66.30;;;24.74;49.52;95425.31;5095910;28;20191;-43
2023/07/08 03:37:13;;;;;;;0.30;0.30;;;24.30;66.40;;;24.73;49.67;95414.81;5112737;28;20198;-48
2023/07/08 03:39:41;;;;;;;0.40;0.40;;;24.20;66.30;;;24.71;49.71;95423.16;5096502;28;20578;-42
2023/07/08 03:42:08;;;;;;;0.40;0.40;;;24.20;66.30;;;24.71;49.63;95427.72;5095666;28;20695;-43
2023/07/08 03:44:35;;;;;;;0.40;0.40;;;24.20;66.40;;;24.70;49.96;95428.78;5096556;28;20211;-42
2023/07/08 03:47:02;;;;;;;0.40;0.40;;;24.20;66.40;;;24.70;49.63;95431.47;5112515;28;20197;-42
2023/07/08 03:49:29;;;;;;;0.40;0.40;;;24.20;66.50;;;24.69;49.85;95424.50;5095359;28;20234;-42
2023/07/08 03:51:57;;;;;;;0.40;0.40;;;24.20;66.80;;;24.66;49.91;95428.53;5111472;28;20727;-42
2023/07/08 03:54:25;;;;;;;0.40;0.40;;;24.20;66.70;;;24.65;49.82;95431.44;5095413;28;20675;-43
2023/07/08 03:56:55;;;;;;;0.60;0.60;;;24.20;66.70;;;24.64;49.91;95436.00;5112356;28;20201;-42
2023/07/08 03:59:25;;;;;;;0.40;0.40;;;24.20;66.60;;;24.61;49.96;95431.97;5112146;28;20190;-43
2023/07/08 04:01:54;;;;;;;0.40;0.40;;;24.10;66.70;;;24.59;50.26;95434.13;5095309;28;20214;-42
2023/07/08 04:04:23;;;;;;;0.40;0.40;;;24.10;66.80;;;24.58;50.03;95440.56;5112230;28;20560;-46
2023/07/08 04:06:51;;;;;;;0.40;0.40;;;24.10;66.70;;;24.57;50.21;95435.47;5095245;28;20203;-42
2023/07/08 04:09:18;;;;;;;0.40;0.40;;;24.10;66.70;;;24.57;50.22;95444.31;5094984;28;20638;-46
2023/07/08 04:11:46;;;;;;;0.30;0.30;;;24.10;66.70;;;24.56;50.39;95445.38;5096002;28;20730;-41
2023/07/08 04:14:13;;;;;;;0.40;0.40;;;24.10;66.70;;;24.55;50.38;95437.63;5096292;28;20290;-41
2023/07/08 04:16:51;;;;;;;0.40;0.40;;;24.10;66.70;;;24.54;50.36;95441.38;5096193;28;20197;-41
2023/07/08 04:19:19;;;;;;;0.30;0.30;;;24.10;66.70;;;24.53;50.17;95443.22;5094938;28;20253;-43
2023/07/08 04:21:47;;;;;;;0.40;0.40;;;24.10;66.70;;;24.53;50.48;95440.56;5095270;28;20199;-41
2023/07/08 04:24:16;;;;;;;0.30;0.30;;;24.00;66.60;;;24.53;50.53;95445.13;5095747;28;20533;-43
2023/07/08 04:26:46;;;;;;;0.40;0.40;;;24.10;66.80;;;24.53;50.54;95445.13;5094988;28;20605;-43
2023/07/08 04:29:17;;;;;;;0.40;0.40;;;24.10;66.70;;;24.52;50.47;95446.19;5095911;28;20579;-41
2023/07/08 04:31:45;;;;;;;0.32;0.32;;;24.10;66.70;;;24.52;50.56;95440.81;5095935;28;20213;-44
2023/07/08 04:34:14;;;;;;;0.40;0.40;;;24.10;66.70;;;24.51;50.76;95447.25;5111741;28;20278;-46
2023/07/08 04:36:43;;;;;;;0.60;0.60;;;24.10;66.70;;;24.51;50.84;95442.72;5095086;28;20206;-45
2023/07/08 04:39:10;;;;;;;0.47;0.47;;;24.10;66.70;;;24.51;50.56;95447.25;5095842;28;20258;-39
2023/07/08 04:41:40;;;;;;;0.40;0.40;;;24.00;66.70;;;24.51;50.80;95449.94;5095548;28;20192;-40
2023/07/08 04:44:10;;;;;;;0.60;0.60;;;24.00;66.70;;;24.50;50.54;95451.81;5095717;28;20180;-40
2023/07/08 04:46:43;;;;;;;0.38;0.38;;;24.00;66.70;;;24.49;50.50;95447.53;5111475;28;20208;-39
2023/07/08 04:49:11;;;;;;;0.40;0.40;;;24.00;66.70;;;24.48;50.69;95447.81;5095538;28;20180;-40
2023/07/08 04:51:40;;;;;;;0.30;0.30;;;24.00;66.70;;;24.49;50.89;95450.22;5095301;28;20276;-40
2023/07/08 04:54:08;;;;;;;0.35;0.35;;;24.00;66.70;;;24.49;50.84;95449.41;5095337;28;20554;-40
2023/07/08 04:56:45;;;;;;;0.40;0.40;;;24.10;66.70;;;24.49;50.59;95444.06;5095887;28;20187;-40
2023/07/08 04:59:17;;;;;;;0.60;0.60;;;24.00;66.70;;;24.49;50.80;95446.75;5095592;28;20178;-39
2023/07/08 05:01:45;;;;;;;0.32;0.32;;;24.00;66.60;;;24.48;50.71;95447.81;5095624;28;20188;-43
2023/07/08 05:04:20;;;;;;;0.50;0.50;;;24.00;66.70;;;24.49;50.75;95457.47;5095765;28;20308;-43
2023/07/08 05:06:48;;;;;;;0.40;0.40;;;24.00;66.60;;;24.49;50.62;95444.84;5095526;28;20189;-42
2023/07/08 05:09:15;;;;;;;0.40;0.40;;;24.00;66.60;;;24.47;50.88;95438.94;5095006;28;20632;-42
2023/07/08 05:11:44;;;;;;;0.40;0.40;;;24.00;66.70;;;24.48;50.95;95445.91;5094766;28;20187;-43
2023/07/08 05:14:13;;;;;;;0.32;0.32;;;24.00;66.70;;;24.49;50.98;95439.47;5094304;28;20246;-43
2023/07/08 05:16:40;;;;;;;0.40;0.40;;;24.00;66.60;;;24.48;51.03;95440.56;5095343;28;20192;-42
2023/07/08 05:19:07;;;;;;;0.30;0.30;;;24.00;66.70;;;24.48;51.06;95440.56;5094896;28;20195;-43
2023/07/08 05:21:35;;;;;;;0.30;0.30;;;24.10;66.70;;;24.46;50.78;95440.81;5095298;28;20521;-43
2023/07/08 05:24:04;;;;;;;0.40;0.40;;;24.00;66.70;;;24.46;50.93;95450.72;5095534;28;20200;-40
2023/07/08 05:26:32;;;;;;;0.32;0.32;;;24.00;66.60;;;24.46;50.63;95458.78;5095133;28;20298;-41
2023/07/08 05:29:02;;;;;;;0.50;0.50;;;24.00;66.70;;;24.47;50.88;95460.38;5095435;28;20198;-41
2023/07/08 05:31:29;;;;;;;0.50;0.50;;;24.00;66.70;;;24.45;50.94;95451.81;5096104;28;20221;-40
2023/07/08 05:33:59;;;;;;;0.40;0.40;;;24.00;66.70;;;24.44;50.63;95453.69;5094318;28;20202;-41
2023/07/08 05:36:26;;;;;;;0.30;0.30;;;24.00;66.70;;;24.43;50.91;95452.06;5111375;28;20194;-44
2023/07/08 05:38:54;;;;;;;0.40;0.40;;;24.00;66.70;;;24.43;50.94;95453.97;5095189;28;20215;-43
2023/07/08 05:41:21;;;;;;;0.40;0.40;;;24.00;66.60;;;24.42;50.74;95449.66;5077760;28;20239;-44
2023/07/08 05:43:48;;;;;;;0.50;0.50;;;24.00;66.70;;;24.41;50.81;95450.72;5095266;28;20201;-44
2023/07/08 05:46:15;;;;;;;0.32;0.32;;;24.00;66.70;;;24.41;50.61;95453.41;5094828;28;20260;-45
2023/07/08 05:48:42;;;;;;;0.30;0.30;;;24.00;66.70;;;24.41;50.67;95456.09;5077865;28;20203;-44
2023/07/08 05:51:09;;;;;;;0.30;0.30;;;24.00;66.70;;;24.39;51.08;95451.00;5095287;28;20695;-43
2023/07/08 05:53:36;;;;;;;0.40;0.40;;;24.00;66.70;;;24.40;50.91;95459.84;5095335;28;20228;-45
2023/07/08 05:56:04;;;;;;;0.40;0.40;;;24.00;66.70;;;24.38;50.64;95454.75;5095051;28;20199;-44
2023/07/08 05:58:32;;;;;;;0.30;0.30;;;24.00;66.70;;;24.39;50.71;95455.53;5094432;28;20621;-46
2023/07/08 06:01:00;;;;;;;0.30;0.30;;;24.00;66.60;;;24.40;50.67;95457.16;5094856;28;20231;-41
2023/07/08 06:03:28;;;;;;;0.40;0.40;;;24.00;66.60;;;24.39;50.90;95451.00;5095346;28;20249;-41
2023/07/08 06:05:56;;;;;;;0.40;0.40;;;24.00;66.70;;;24.39;51.05;95458.22;5094478;28;20205;-42
2023/07/08 06:08:23;;;;;;;0.30;0.30;;;24.00;66.70;;;24.39;51.07;95459.06;5093845;28;20225;-40
2023/07/08 06:10:51;;;;;;;0.40;0.40;;;24.00;66.60;;;24.39;51.05;95466.28;5094244;28;20194;-42
2023/07/08 06:13:18;;;;;;;0.38;0.38;;;24.00;66.60;;;24.38;50.63;95456.66;5094658;28;20651;-39
2023/07/08 06:15:46;;;;;;;0.40;0.40;;;24.00;66.70;;;24.39;50.26;95455.53;5097477;28;20283;-42
2023/07/08 06:18:13;;;;;;;0.40;0.40;;;24.00;66.60;;;24.39;50.33;95450.19;5098749;28;20274;-40
2023/07/08 06:20:40;;;;;;;0.30;0.30;;;24.00;66.60;;;24.39;50.25;95447.50;5099137;28;20199;-41
2023/07/08 06:23:07;;;;;;;0.40;0.40;;;24.00;66.40;;;24.39;49.86;95437.59;5097771;28;20204;-42
2023/07/08 06:25:35;;;;;;;0.50;0.50;;;24.00;66.10;;;24.40;50.13;95446.44;5099450;28;20208;-54
2023/07/08 06:28:03;;;;;;;0.30;0.30;;;24.00;66.00;;;24.41;49.90;95450.72;5100084;28;20177;-44
2023/07/08 06:30:30;;;;;;;0.30;0.30;;;24.00;65.90;;;24.40;49.92;95439.22;5099573;28;20192;-42
2023/07/08 06:32:57;;;;;;;0.40;0.40;;;24.00;65.80;;;24.41;49.64;95445.38;5098817;28;20213;-42
2023/07/08 06:35:27;;;;;;;0.30;0.30;;;24.00;65.80;;;24.43;49.72;95448.59;5098864;28;20253;-45
2023/07/08 06:37:54;;;;;;;0.30;0.30;;;24.00;65.60;;;24.39;49.18;95434.91;5098607;28;20246;-45
2023/07/08 06:40:22;;;;;;;0.30;0.30;;;24.00;66.60;;;24.44;49.49;95456.38;5098647;28;20193;-43
2023/07/08 06:42:50;;;;;;;0.40;0.40;;;24.00;65.60;;;24.45;49.40;95455.31;5099384;28;20246;-41
2023/07/08 06:45:29;;;;;;;0.50;0.50;;;24.10;65.60;;;24.44;49.23;95453.69;5115006;28;20585;-45
2023/07/08 06:47:56;;;;;;;0.40;0.40;;;24.00;65.50;;;24.45;49.26;95457.19;5098392;28;20216;-45
2023/07/08 06:50:23;;;;;;;0.30;0.30;;;24.00;65.30;;;24.46;48.97;95453.41;5097731;28;20622;-42
2023/07/08 06:52:50;;;;;;;0.40;0.40;;;24.10;65.40;;;24.45;49.13;95452.63;5096726;28;20211;-41
2023/07/08 06:55:18;;;;;;;0.30;0.30;;;24.00;65.20;;;24.46;49.10;95464.13;5097488;28;20623;-40
2023/07/08 06:57:45;;;;;;;0.40;0.40;;;24.10;65.20;;;24.46;48.94;95459.59;5097870;28;20223;-39
2023/07/08 07:00:12;;;;;;;0.40;0.40;;;24.10;65.20;;;24.46;48.90;95456.91;5098229;28;20196;-42
2023/07/08 07:02:39;;;;;;;0.50;0.50;;;24.10;65.20;;;24.49;48.97;95452.91;5096849;28;20280;-42
2023/07/08 07:05:07;;;;;;;0.40;0.40;;;24.10;65.20;;;24.49;48.69;95452.91;5097656;28;20191;-42
2023/07/08 07:07:34;;;;;;;0.50;0.50;;;24.00;65.10;;;24.50;48.91;95457.19;5096985;28;20193;-41
2023/07/08 07:10:03;;;;;;;0.40;0.40;;;24.00;65.00;;;24.51;48.46;95457.97;5097717;28;20248;-39
2023/07/08 07:12:30;;;;;;;0.40;0.40;;;24.10;65.00;;;24.52;48.53;95446.19;5097895;28;20227;-42
2023/07/08 07:14:57;;;;;;;0.40;0.40;;;24.10;65.00;;;24.52;48.82;95455.03;5097825;28;20538;-43
2023/07/08 07:17:26;;;;;;;0.30;0.30;;;24.10;64.90;;;24.50;48.59;95449.16;5097858;28;20188;-41
2023/07/08 07:19:56;;;;;;;0.40;0.40;;;24.10;64.80;;;24.52;48.17;95446.97;5097727;28;20197;-43
2023/07/08 07:22:23;;;;;;;0.30;0.30;;;24.10;64.60;;;24.54;48.06;95444.84;5098453;28;20200;-43
2023/07/08 07:24:50;;;;;;;0.30;0.30;;;24.10;64.70;;;24.55;48.22;95435.72;5097884;28;20542;-44
2023/07/08 07:27:18;;;;;;;0.35;0.35;;;24.10;64.60;;;24.56;47.99;95448.06;5097680;28;20237;-40
2023/07/08 07:29:48;;;;;;;0.30;0.30;;;24.10;64.40;;;24.57;48.12;95438.97;5097239;28;20288;-43
2023/07/08 07:32:22;;;;;;;0.30;0.30;;;24.10;64.30;;;24.58;47.60;95440.56;5096982;28;20206;-41
2023/07/08 07:34:50;;;;;;;0.40;0.40;;;24.10;64.20;;;24.60;47.80;95445.66;5097624;28;20240;-43
2023/07/08 07:37:21;;;;;;;0.38;0.38;;;24.10;64.20;;;24.61;47.74;95439.22;5096178;28;20602;-45
2023/07/08 07:39:48;;;;;;;0.30;0.30;;;24.20;64.00;;;24.61;47.40;95440.03;5097192;28;20198;-42
2023/07/08 07:42:18;;;;;;;0.30;0.30;;;24.20;64.20;;;24.63;47.30;95439.75;5096957;28;20203;-41
2023/07/08 07:44:46;;;;;;;0.30;0.30;;;24.20;64.00;;;24.65;47.36;95437.59;5096874;28;20233;-41
2023/07/08 07:47:13;;;;;;;0.30;0.30;;;24.20;64.00;;;24.65;47.27;95439.50;5096480;28;20196;-47
2023/07/08 07:49:41;;;;;;;0.38;0.38;;;24.20;63.90;;;24.66;47.19;95435.75;5096531;28;20715;-41
2023/07/08 07:52:10;;;;;;;0.30;0.30;;;24.20;63.80;;;24.67;47.10;95440.88;5096500;28;20201;-42
2023/07/08 07:54:41;;;;;;;0.60;0.60;;;24.20;63.70;;;24.67;46.88;95440.88;5095518;28;20294;-40
2023/07/08 07:57:08;;;;;;;0.30;0.30;;;24.20;63.50;;;24.69;47.39;95440.59;5096456;28;20245;-42
2023/07/08 07:59:35;;;;;;;0.30;0.30;;;24.20;63.60;;;24.71;46.83;95443.81;5096363;28;20197;-40
2023/07/08 08:02:03;;;;;;;0.30;0.30;;;24.20;63.50;;;24.72;46.71;95440.06;5096592;28;20263;-39
2023/07/08 08:04:30;;;;;;;0.30;0.30;;;24.20;63.40;;;24.72;46.66;95448.91;5095954;28;20528;-38
2023/07/08 08:06:58;;;;;;;0.30;0.30;;;24.30;63.50;;;24.73;46.34;95434.44;5095200;28;20249;-38
2023/07/08 08:09:25;;;;;;;0.32;0.32;;;24.20;63.20;;;24.76;46.59;95443.81;5094860;28;20231;-38
2023/07/08 08:11:52;;;;;;;0.30;0.30;;;24.30;63.30;;;24.78;46.50;95442.47;5096191;28;20635;-38
2023/07/08 08:14:19;;;;;;;0.30;0.30;;;24.30;63.20;;;24.80;46.15;95431.47;5096186;28;20267;-38
2023/07/08 08:16:46;;;;;;;0.30;0.30;;;24.30;63.10;;;24.83;46.20;95428.25;5095655;28;20248;-38
2023/07/08 08:19:14;;;;;;;0.30;0.30;;;24.40;63.10;;;24.86;45.97;95427.69;5095126;28;20223;-38
2023/07/08 08:21:41;;;;;;;0.40;0.40;;;24.40;62.90;;;24.89;45.71;95439.75;5095048;28;20193;-38
2023/07/08 08:24:08;;;;;;;0.40;0.40;;;24.40;62.90;;;24.91;45.24;95435.75;5095873;28;20206;-38
2023/07/08 08:26:35;;;;;;;0.40;0.40;;;24.40;62.30;;;24.96;45.06;95426.09;5095493;28;20253;-38
2023/07/08 08:29:03;;;;;;;0.30;0.30;;;24.40;62.20;;;25.00;45.05;95441.38;5095979;28;20198;-38
2023/07/08 08:31:31;;;;;;;0.30;0.30;;;24.50;62.20;;;25.02;44.95;95443.78;5094700;28;20556;-38
2023/07/08 08:33:59;;;;;;;0.30;0.30;;;24.50;62.10;;;25.07;44.89;95441.09;5094940;28;20222;-39
2023/07/08 08:36:26;;;;;;;0.30;0.30;;;24.50;62.10;;;25.08;44.90;95429.28;5095181;28;20195;-40
2023/07/08 08:38:54;;;;;;;0.50;0.50;;;24.60;62.00;;;25.12;44.68;95435.72;5095032;28;20619;-40
2023/07/08 08:41:36;;;;;;;0.30;0.30;;;24.60;61.70;;;25.14;44.52;95430.88;5095587;28;20224;-40
2023/07/08 08:44:06;;;;;;;0.40;0.40;;;24.70;61.50;;;25.16;44.29;95431.41;5095156;28;20592;-41
2023/07/08 08:46:56;;;;;;;0.40;0.40;;;24.60;61.70;;;25.16;44.31;95442.16;5095584;28;20203;-40
2023/07/08 08:49:32;;;;;;;0.40;0.40;;;24.70;61.50;;;25.19;44.37;95435.44;5094812;28;20185;-42
2023/07/08 08:51:59;;;;;;;0.30;0.30;;;24.70;61.30;;;25.21;44.14;95441.34;5094603;28;20199;-41
2023/07/08 08:54:27;;;;;;;0.30;0.30;;;24.70;61.40;;;25.22;44.18;95433.00;5095281;28;20547;-42
2023/07/08 08:57:31;;;;;;;0.30;0.30;;;24.70;61.20;;;25.21;43.74;95439.47;5095248;28;20189;-41
2023/07/08 08:59:59;;;;;;;0.40;0.40;;;24.70;60.70;;;25.23;43.35;95437.31;5095045;28;20189;-40
2023/07/08 09:02:48;;;;;;;0.50;0.50;;;24.80;60.80;;;25.24;43.39;95436.25;5094403;28;20190;-40
2023/07/08 09:05:15;;;;;;;0.30;0.30;;;24.80;60.60;;;25.26;43.01;95436.75;5094812;28;20251;-41
2023/07/08 09:08:36;;;;;;;0.30;0.30;;;24.80;60.70;;;25.28;43.32;95444.56;5094544;28;20209;-41
2023/07/08 09:11:46;;;;;;;0.30;0.30;;;24.80;60.70;;;25.30;43.48;95437.00;5073710;28;20204;-40
2023/07/08 09:14:36;;;;;;;0.38;0.38;;;24.80;60.50;;;25.30;43.41;95437.00;5090713;28;20228;-40
2023/07/08 09:17:34;;;;;;;0.30;0.30;;;24.80;60.50;;;25.31;42.88;95443.22;5095058;28;20175;-44
2023/07/08 09:20:30;;;;;;;0.30;0.30;;;24.90;60.40;;;25.33;43.10;95428.44;5094508;28;20207;-41
2023/07/08 09:23:13;;;;;;;0.40;0.40;;;24.90;60.40;;;25.33;42.92;95428.44;5095333;28;20552;-41
2023/07/08 09:25:49;;;;;;;0.30;0.30;;;24.90;60.20;;;25.36;42.66;95427.06;5094961;28;20617;-41
2023/07/08 09:28:16;;;;;;;0.50;0.50;;;24.90;60.20;;;25.37;42.83;95423.31;5094152;28;20182;-40
2023/07/08 09:30:52;;;;;;;0.32;0.32;;;24.90;60.30;;;25.37;42.74;95432.19;5095516;28;20200;-41
2023/07/08 09:33:20;;;;;;;0.40;0.40;;;24.90;60.00;;;25.40;42.54;95433.53;5095166;28;20224;-41
2023/07/08 09:35:48;;;;;;;0.30;0.30;;;24.90;60.20;;;25.42;42.49;95429.47;5095105;28;20584;-41
2023/07/08 09:38:21;;;;;;;0.30;0.30;;;24.90;60.10;;;25.46;42.39;95431.63;5094924;28;20194;-41
2023/07/08 09:40:53;;;;;;;0.40;0.40;;;24.90;60.00;;;25.46;42.72;95424.38;5095120;28;20198;-41
2023/07/08 09:43:36;;;;;;;0.55;0.55;;;24.90;59.90;;;25.47;42.64;95423.28;5095000;28;20205;-40
2023/07/08 09:46:03;;;;;;;0.30;0.30;;;25.00;59.80;;;25.50;42.59;95425.44;5095270;28;20604;-41
2023/07/08 09:48:36;;;;;;;0.30;0.30;;;25.00;60.00;;;25.52;41.90;95420.63;5095510;28;20187;-40
2023/07/08 09:51:04;;;;;;;0.40;0.40;;;25.00;59.40;;;25.54;41.96;95415.75;5099158;28;20185;-41
2023/07/08 09:53:33;;;;;;;0.40;0.40;;;25.00;59.50;;;25.56;41.68;95424.34;5098971;28;20222;-39
2023/07/08 09:56:04;;;;;;;0.30;0.30;;;25.00;59.50;;;25.57;41.65;95423.28;5098034;28;20214;-42
2023/07/08 09:58:43;;;;;;;0.55;0.55;;;25.00;59.10;;;25.59;41.34;95416.84;5099105;28;20219;-40
2023/07/08 10:01:15;;;;;;;0.32;0.32;;;25.10;60.00;;;25.60;41.43;95419.22;5097961;28;20178;-41
2023/07/08 10:03:43;;;;;;;0.35;0.35;;;25.10;58.80;;;25.62;41.63;95425.16;5099116;28;20250;-39
2023/07/08 10:06:27;;;;;;;0.45;0.45;;;25.10;58.70;;;25.61;41.53;95420.84;5098523;28;20194;-42
2023/07/08 10:08:55;;;;;;;0.40;0.40;;;25.10;58.10;;;25.65;41.31;95413.03;5098936;28;20176;-39
2023/07/08 10:11:44;;;;;;;0.40;0.40;;;25.10;58.20;;;25.67;40.88;95413.56;5099059;28;20204;-41
2023/07/08 10:14:37;;;;;;;0.35;0.35;;;25.10;58.20;;;25.66;40.62;95415.44;5081335;28;20201;-42
2023/07/08 10:17:05;;;;;;;0.30;0.30;;;25.10;58.00;;;25.67;40.56;95395.56;5098183;28;20175;-42
2023/07/08 10:19:32;;;;;;;0.38;0.38;;;25.20;57.90;;;25.69;40.44;95409.50;5098499;28;20204;-41
2023/07/08 10:22:30;;;;;;;0.40;0.40;;;25.20;58.00;;;25.68;40.72;95399.88;5097981;28;20231;-42
2023/07/08 10:25:11;;;;;;;0.30;0.30;;;25.20;58.10;;;25.70;40.37;95405.75;5098227;28;20182;-41
2023/07/08 10:27:54;;;;;;;0.30;0.30;;;25.20;57.60;;;25.72;40.16;95394.75;5097847;28;20234;-42
2023/07/08 10:30:30;;;;;;;0.50;0.50;;;25.20;57.20;;;25.76;40.50;95395.00;5098110;28;20595;-43
2023/07/08 10:33:34;;;;;;;0.35;0.35;;;25.20;57.60;;;25.77;40.23;95399.25;5114530;28;20192;-41
2023/07/08 10:36:24;;;;;;;0.30;0.30;;;25.20;57.30;;;25.76;40.33;95413.81;5098001;28;20212;-42